Whiteville, NC (28472)

7:26 PM EDT on May 27, 2017 (GMT -0400)
College Street near Edgewood | | Change Station

Elev 87 ft 34.33 °N, 78.70 °W | Updated 18 seconds ago

Partly Cloudy
Partly Cloudy
87.2 °F
Feels Like 91 °F
N
0.0
Wind Variable Wind from SE
Gusts 1.0 mph

Today
High -- | Low -- °F
--% Chance of Precip.
Yesterday
High -- | Low -- °F
Precip. -- in
Pressure 29.89 in
Visibility 10.0 miles
Clouds Scattered Clouds 6000 ft
Heat Index 91 °F
Dew Point 68 °F
Humidity 54%
Rainfall 0.00 in
Snow Depth Not available.
6:05 AM 8:18 PM
Waxing Crescent, 7% visible
METAR KCPC 272055Z AUTO 26009KT 210V290 10SM SCT060 31/19 A2989 RMK AO2 T03130185
Pressure 29.89 in
Visibility 10.0 miles
Clouds Scattered Clouds 6000 ft
Heat Index 91 °F
Dew Point 68 °F
Humidity 54%
Rainfall 0.00 in
Snow Depth Not available.
6:05 AM 8:18 PM
Waxing Crescent, 7% visible
METAR KCPC 272055Z AUTO 26009KT 210V290 10SM SCT060 31/19 A2989 RMK AO2 T03130185

Get Severe Weather Alerts

Thanks for signing up!

Be on the lookout for a verification email in your inbox.

You'll start receiving the daily forecast at 6 AM.

×

10-Day Weather Forecast

Almanac

Astronomy

May. 27, 2017 Rise Set
Actual Time
Civil Twilight
Nautical Twilight
Astronomical Twilight
Moon
Length of Visible Light
Length of Day
Tomorrow will be .
, % of the Moon is Illuminated

Today's Extremes

State Highs State Lows

Community

WunderPhotos

Category 6

Welcome to Category 6. This is the collective home for Weather Underground's featured writeups by Dr. Jeff Masters (right), Bob Henson (left), Chris Burt, and other regular contributors.

Nearby

Air Quality

  Air Quality AQ Index Pollutant
Not available.

Snow Depth

Station Depth Elevation

Earthquake Activity

City Distance Mag. Time & Date
Minimum magnitude displayed is 2.5.

Coastal Water Temperatures

Place Temperature

Stations

Nearby Weather Stations

Station Location Temp. Windchill Dew Point Humidity Wind Precip. Elev Updated Type
                   

Watches & Warnings

There are currently no watches in effect.